Latest Coastal Weather Observations for Cocos Island

IDW60701

Issued at 12:22 am WST Tuesday 31 March 2015 (issued every 10 minutes, with the page automatically refreshed every 10 minutes)

About coastal observations | Map of coastal stations | Coastal observations for WA | Marine services | Other Formats
Station Details ID: 200284 Name: COCOS ISLAND AIRPORT Lat: -12.19 Lon: 96.83 Height: 3.0 m
Data from the previous 72 hours. | See also: Recent months at Cocos Island
Date/Time
WST
Temp

°C
Wind Pressure Rain
since 9am
mm
Weather Cloud Vis
km
Sea
Height
m
Swell
Dir
 
Speed
knots
Gust
knots
hPa Trend Height
m
Period
s
Dir
31/12:00am 27.8 ESE 7 9 1012.0 - 0.0 - - 10 - - - -
 
Date/Time
WST
Temp

°C
Wind Pressure Rain
since 9am
mm
Weather Cloud Vis
km
Sea
Height
m
Swell
Dir
 
Speed
knots
Gust
knots
hPa Trend Height
m
Period
s
Dir
30/11:30pm 28.0 ESE 7 9 1012.2 - 0.0 - - 10 - - - -
30/11:00pm 28.3 E 8 10 1012.1 - 0.0 - - 10 - - - -
30/10:30pm 28.2 E 9 12 1012.2 - 0.0 - - 10 - - - -
30/10:00pm 28.3 E 10 13 1012.0 - 0.0 - - 10 - - - -
30/09:30pm 28.6 E 12 15 1011.7 - 0.0 - Partly cloudy 10 - - - -
30/09:00pm 28.7 SSE 4 5 1011.3 - 0.0 - Partly cloudy 10 - - - -
30/08:30pm 28.6 SSE 3 5 1011.3 - 0.0 - - 10 - - - -
30/08:00pm 28.6 S 5 6 1010.5 - 0.0 - - 10 - - - -
30/07:30pm 29.0 SSE 5 6 1010.3 - 0.0 - Partly cloudy 10 - - - -
30/07:00pm 29.4 SSE 5 7 1009.9 - 0.0 - Partly cloudy 10 - - - -
30/06:30pm 29.7 S 5 7 1009.7 - 0.0 - Partly cloudy 10 - - - -
30/06:00pm 29.9 SSE 5 7 1009.4 - 0.0 - Mostly clear 10 - - - -
30/05:30pm 30.5 S 5 7 1009.4 - 0.0 - Mostly clear 10 - - - -
30/05:00pm 30.3 SSW 5 6 1009.1 - 0.0 Fine Mostly cloudy 40 - - - -
30/04:30pm 30.5 ENE 4 5 1008.8 - 0.0 - Mostly clear 10 - - - -
30/04:00pm 30.6 NE 3 5 1008.9 - 0.0 - Mostly clear 10 - - - -
30/03:30pm 31.1 WNW 3 6 1009.1 - 0.0 - Mostly clear 10 - - - -
30/03:00pm 30.5 ENE 4 5 1009.5 - 0.0 - Mostly clear 10 - - - -
30/02:30pm 30.1 NNE 5 7 1010.0 - 0.0 - Mostly clear 10 - - - -
30/02:00pm 29.6 NE 3 5 1010.4 - 0.0 Fine Mostly clear 40 - - - -
30/01:30pm 30.2 ENE 4 5 1010.7 - 0.0 - Mostly clear 10 - - - -
30/01:00pm 30.0 N 5 7 1011.2 - 0.0 - Mostly clear 10 - - - -
30/12:30pm 29.7 NNE 6 8 1011.6 - 0.0 - Mostly clear 10 - - - -
30/12:00pm 29.4 NNE 7 9 1011.9 - 0.0 - Mostly clear 10 - - - -
30/11:30am 29.8 NNE 8 10 1012.2 - 0.0 - Mostly clear 10 - - - -
30/11:00am 29.6 NNE 6 8 1012.1 - 3.8 Fine Mostly cloudy 30 - - - -
30/10:30am 29.2 NE 5 7 1012.1 - 3.6 - Mostly clear 10 - - - -
30/10:00am 28.4 N 5 6 1011.8 - 3.6 - Mostly clear 10 - - - -
30/09:30am 28.0 NNE 6 7 1011.6 - 3.6 - Mostly clear 10 - - - -
30/09:00am 27.7 NE 6 8 1011.1 - 3.6 - Mostly clear 10 - - - -
30/08:30am 26.9 ESE 4 4 1010.4 - 3.6 - Mostly clear 10 - - - -
30/08:00am 26.3 CALM 0 0 1009.8 - 3.6 Fine Mostly cloudy 30 - - - -
30/07:30am 26.2 CALM 0 0 1009.1 - 3.6 - Mostly clear 10 - - - -
30/07:00am 26.8 N 3 6 1008.8 - 3.6 - Mostly clear 10 - - - -
30/06:30am 26.9 NNE 6 8 1008.3 - 3.6 - Partly cloudy 10 - - - -
30/06:00am 26.9 NNE 6 8 1008.2 - 3.6 - - 10 - - - -
30/05:33am 26.7 N 7 10 1008.2 - 3.6 - Partly cloudy 10 - - - -
30/05:30am 26.7 N 7 10 1008.2 - 3.6 - Partly cloudy 10 - - - -
30/05:02am 26.2 NNW 4 5 1008.4 - 3.6 - Partly cloudy 10 - - - -
30/05:00am 26.1 NNW 4 5 1008.5 - 3.6 - Partly cloudy 10 - - - -
30/04:30am 26.3 N 4 6 1008.8 - 3.6 - - 10 - - - -
30/04:00am 26.6 N 6 8 1009.2 - 3.6 - - 10 - - - -
30/03:30am 26.1 N 5 6 1009.5 - 3.6 - - 10 - - - -
30/03:00am 25.8 NNW 5 6 1009.9 - 3.6 - Partly cloudy 10 - - - -
30/02:30am 25.9 N 6 9 1010.2 - 3.6 - Partly cloudy 10 - - - -
30/02:00am 26.4 N 7 11 1010.8 - 3.6 - - 10 - - - -
30/01:30am 26.4 N 5 8 1011.0 - 3.6 - Partly cloudy 10 - - - -
30/01:00am 26.3 NNE 7 9 1011.2 - 3.6 - - 10 - - - -
30/12:30am 26.0 ENE 6 8 1011.6 - 3.6 - Partly cloudy 10 - - - -
30/12:00am 25.7 E 4 5 1011.6 - 3.6 - Partly cloudy 10 - - - -
 
Date/Time
WST
Temp

°C
Wind Pressure Rain
since 9am
mm
Weather Cloud Vis
km
Sea
Height
m
Swell
Dir
 
Speed
knots
Gust
knots
hPa Trend Height
m
Period
s
Dir
29/11:30pm 25.7 SSE 4 5 1011.9 - 3.6 - Partly cloudy 10 - - - -
29/11:00pm 25.8 SSE 6 8 1011.6 - 3.2 - Cloudy 10 - - - -
29/10:30pm 25.8 SSW 9 11 1011.4 - 3.2 - - 10 - - - -
29/10:00pm 25.6 SSW 8 11 1011.4 - 2.6 - Partly cloudy 10 - - - -
29/09:30pm 25.7 SW 9 11 1011.1 - 2.6 - Partly cloudy 10 - - - -
29/09:00pm 25.7 SW 7 9 1010.7 - 2.6 - Partly cloudy 10 - - - -
29/08:30pm 25.5 W 7 9 1010.5 - 2.4 - Partly cloudy 10 - - - -
29/08:00pm 25.5 W 5 6 1010.2 - 2.2 - Cloudy 10 - - - -
29/07:44pm 25.0 WNW 5 6 1009.6 - 2.2 - Partly cloudy 10 - - - -
29/07:30pm 24.9 NNW 6 9 1009.6 - 1.8 - Partly cloudy 6 - - - -
29/07:26pm 25.0 N 7 10 1009.5 - 1.6 - Partly cloudy 6 - - - -
29/07:25pm 25.0 N 7 10 1009.5 - 1.6 - Partly cloudy 7 - - - -
29/07:00pm 25.9 NNE 18 20 1009.0 - 0.0 - Partly cloudy 5 - - - -
29/06:59pm 26.0 NNE 18 21 1008.9 - 0.0 - Partly cloudy 6 - - - -
29/06:34pm 27.8 NNE 15 25 1008.5 - 0.0 - Partly cloudy 10 - - - -
29/06:30pm 28.5 NNE 12 17 1008.4 - 0.0 - Partly cloudy 10 - - - -
29/06:00pm 29.4 ENE 8 11 1008.2 - 0.0 - Partly cloudy 10 - - - -
29/05:30pm 29.8 ENE 9 12 1008.0 - 0.0 - Partly cloudy 10 - - - -
29/05:00pm 30.7 NE 9 11 1008.2 - 0.0 Distant precip. Partly cloudy 25 - - - -
29/04:30pm 30.2 ENE 7 9 1008.2 - 0.0 - Mostly clear 10 - - - -
29/04:00pm 30.7 ENE 7 9 1008.4 - 0.0 - Mostly clear 10 - - - -
29/03:30pm 30.2 ENE 9 11 1008.4 - 0.0 - Mostly clear 10 - - - -
29/03:00pm 30.1 ENE 10 13 1008.6 - 0.0 - Mostly clear 10 - - - -
29/02:30pm 30.3 E 10 12 1009.1 - 0.0 - Mostly clear 10 - - - -
29/02:00pm 30.4 ENE 11 12 1009.5 - 0.0 Fine Partly cloudy 25 - - - -
29/01:30pm 30.3 E 10 13 1010.1 - 0.0 - Mostly clear 10 - - - -
29/01:00pm 30.4 E 8 11 1010.4 - 0.0 - Mostly clear 10 - - - -
29/12:30pm 30.1 E 9 11 1010.9 - 0.0 - - 10 - - - -
29/12:00pm 29.5 E 10 13 1011.1 - 0.0 - Mostly clear 10 - - - -
29/11:30am 29.6 ENE 8 10 1011.3 - 0.0 - Mostly clear 10 - - - -
29/11:00am 29.4 E 9 11 1011.1 - 0.0 Fine Partly cloudy 25 - - - -
29/10:30am 29.3 E 9 11 1011.0 - 0.0 - Mostly clear 10 - - - -
29/10:00am 29.1 E 9 10 1011.0 - 0.0 - Mostly clear 10 - - - -
29/09:30am 28.8 SE 7 8 1010.9 - 0.0 - Mostly clear 10 - - - -
29/09:00am 28.2 ESE 6 8 1010.8 - 0.0 Showers Mostly clear 10 - - - -
29/08:30am 27.7 ESE 5 6 1010.5 - 0.0 - Mostly clear 10 - - - -
29/08:00am 27.2 SE 7 10 1010.1 - 0.0 Distant precip. Partly cloudy 25 - - - -
29/07:30am 26.7 ESE 5 6 1009.8 - 0.0 - Mostly clear 10 - - - -
29/07:00am 26.9 E 7 8 1009.5 - 0.0 - Mostly clear 10 - - - -
29/06:30am 26.7 E 6 8 1009.2 - 0.0 - - 10 - - - -
29/06:00am 26.7 ESE 8 12 1009.1 - 0.0 - Partly cloudy 10 - - - -
29/05:30am 26.9 SE 6 8 1009.1 - 0.0 - - 10 - - - -
29/05:00am 26.7 SE 5 7 1009.0 - 0.0 - - 10 - - - -
29/04:30am 26.5 SE 9 11 1009.1 - 0.0 - Partly cloudy 10 - - - -
29/04:00am 26.8 E 11 14 1009.2 - 0.0 - Partly cloudy 10 - - - -
29/03:30am 27.2 E 11 14 1009.5 - 0.0 - Partly cloudy 10 - - - -
29/03:00am 27.6 SSE 6 8 1009.7 - 0.0 - - 10 - - - -
29/02:30am 27.8 SE 7 10 1010.0 - 0.0 - Partly cloudy 10 - - - -
29/02:00am 27.8 SE 6 8 1010.3 - 0.0 - Mostly clear 10 - - - -
29/01:30am 27.8 ESE 5 7 1010.7 - 0.0 - - 10 - - - -
29/01:00am 27.9 ESE 6 8 1010.8 - 0.0 - - 10 - - - -
29/12:30am 27.8 ESE 7 8 1011.0 - 0.0 - - 10 - - - -
29/12:00am 27.9 ESE 6 8 1011.1 - 0.0 - - 10 - - - -
 
Date/Time
WST
Temp

°C
Wind Pressure Rain
since 9am
mm
Weather Cloud Vis
km
Sea
Height
m
Swell
Dir
 
Speed
knots
Gust
knots
hPa Trend Height
m
Period
s
Dir
28/11:30pm 27.9 SE 6 8 1011.1 - 0.0 - - 10 - - - -
28/11:00pm 27.9 SSE 6 8 1011.2 - 0.0 - - 10 - - - -
28/10:30pm 27.8 SE 5 6 1011.2 - 0.0 - - 10 - - - -
28/10:00pm 28.1 ESE 5 7 1011.1 - 0.0 - - 10 - - - -
28/09:30pm 28.0 ESE 6 8 1011.0 - 0.0 - - 10 - - - -
28/09:00pm 27.9 SSE 6 8 1010.9 - 0.0 - - 10 - - - -
28/08:30pm 27.9 SSE 6 7 1010.5 - 0.0 - - 10 - - - -
28/08:00pm 28.1 SE 6 7 1010.0 - 0.0 - - 10 - - - -
28/07:30pm 28.2 SSE 5 6 1009.9 - 0.0 - Partly cloudy 10 - - - -
28/07:00pm 28.8 SSE 7 11 1009.7 - 0.0 - - 10 - - - -
28/06:30pm 29.1 SSE 9 11 1009.5 - 0.0 - - 10 - - - -
28/06:00pm 29.4 S 8 9 1009.2 - 0.0 - Mostly clear 10 - - - -
28/05:30pm 29.3 S 8 11 1009.1 - 0.0 - Partly cloudy 10 - - - -
28/05:00pm 29.7 SSE 7 9 1009.2 - 0.0 Fine Partly cloudy 25 - - - -
28/04:30pm 29.6 SE 7 9 1009.0 - 0.0 - Mostly clear 10 - - - -
28/04:00pm 30.2 ENE 5 6 1009.2 - 0.0 - Mostly clear 10 - - - -
28/03:30pm 30.1 E 5 7 1009.7 - 0.0 - Mostly clear 10 - - - -
28/03:00pm 30.2 E 7 9 1010.1 - 0.0 - Mostly clear 10 - - - -
28/02:30pm 29.9 ENE 7 9 1010.5 - 0.0 - - 10 - - - -
28/02:00pm 29.7 ESE 7 10 1011.1 - 0.0 Recent precip. Partly cloudy 30 - - - -
28/01:30pm 28.5 ESE 11 15 1011.7 - 0.0 - Partly cloudy 10 - - - -
28/01:00pm 28.8 SE 8 10 1011.9 - 0.0 - Partly cloudy 10 - - - -
28/12:30pm 29.7 SE 7 10 1012.3 - 0.0 - Mostly clear 10 - - - -
28/12:00pm 29.5 SE 7 9 1012.6 - 0.0 - Mostly clear 10 - - - -
28/11:30am 29.2 SE 7 10 1012.8 - 0.0 - Mostly clear 10 - - - -
28/11:00am 29.0 SE 7 10 1012.7 - 14.8 Distant precip. Partly cloudy 25 - - - -
28/10:30am 28.8 SE 8 11 1012.8 - 14.6 - Mostly clear 10 - - - -
28/10:00am 28.5 ESE 9 12 1012.6 - 14.6 - Mostly clear 10 - - - -
28/09:30am 28.0 ESE 9 12 1012.5 - 14.6 - Mostly clear 10 - - - -
28/09:00am 27.2 ESE 9 12 1012.2 - 14.6 - Mostly clear 10 - - - -
28/08:30am 26.6 ESE 8 11 1011.7 - 14.6 - Mostly clear 10 - - - -
28/08:00am 26.4 ESE 9 11 1011.4 - 14.6 Distant precip. Mostly cloudy 20 - - - -
28/07:30am 26.2 SE 11 14 1011.3 - 14.6 - Mostly clear 10 - - - -
28/07:00am 26.0 SE 7 10 1011.1 - 14.6 - Partly cloudy 10 - - - -
28/06:30am 26.0 SE 7 10 1011.0 - 14.6 - Partly cloudy 10 - - - -
28/06:00am 25.8 SSE 10 15 1010.9 - 14.6 - Partly cloudy 10 - - - -
28/05:31am 25.6 S 9 13 1010.9 - 14.4 - Partly cloudy 10 - - - -
28/05:30am 25.5 SSE 9 12 1010.9 - 14.4 - Partly cloudy 10 - - - -
28/05:00am 25.6 S 10 13 1010.9 - 14.0 - Cloudy 10 - - - -
28/04:43am 25.7 SSE 9 13 1010.9 - 14.0 - Partly cloudy 9 - - - -
28/04:30am 25.7 SE 5 8 1010.9 - 14.0 - Partly cloudy 5 - - - -
28/04:19am 26.0 N 5 13 1011.0 - 13.6 - Partly cloudy 2 - - - -
28/04:15am 26.1 NNW 5 13 1011.0 - 13.0 - Partly cloudy 3 - - - -
28/04:11am 26.2 N 5 13 1011.0 - 11.4 - Partly cloudy 6 - - - -
28/04:05am 26.0 N 3 5 1011.0 - 9.8 - Partly cloudy 10 - - - -
28/04:00am 25.6 WNW 4 6 1011.1 - 9.8 - Partly cloudy 10 - - - -
28/03:32am 25.8 SSE 5 7 1011.2 - 9.8 - Partly cloudy 10 - - - -
28/03:30am 25.7 SSE 5 7 1011.2 - 9.8 - Partly cloudy 10 - - - -
28/03:16am 26.3 ESE 9 10 1011.3 - 9.6 - Partly cloudy 6 - - - -
28/03:00am 26.6 ENE 10 11 1011.6 - 9.2 - Partly cloudy 10 - - - -
28/02:30am 27.3 E 6 7 1011.9 - 9.2 - Partly cloudy 10 - - - -
28/02:00am 27.3 NE 7 9 1012.0 - 9.2 - Mostly clear 10 - - - -

Other Formats:

Comma delimited format used in spreadsheet applications
http://www.bom.gov.au/fwo/IDW60701/IDW60701.96996.axf

JavaScript Object Notation format (JSON) in row-major order
http://www.bom.gov.au/fwo/IDW60701/IDW60701.96996.json